createdAt,value
2017-11-17T00:00:56.930Z,16.10
2017-11-17T00:02:00.224Z,17.30
2017-11-17T00:03:03.519Z,16.42
2017-11-17T00:04:06.044Z,15.52
2017-11-17T00:05:08.602Z,16.87
2017-11-17T00:06:11.136Z,16.45
2017-11-17T00:07:13.658Z,14.73
2017-11-17T00:08:16.951Z,15.25
2017-11-17T00:09:20.273Z,15.13
2017-11-17T00:10:22.800Z,16.10
2017-11-17T00:11:26.089Z,16.60
2017-11-17T00:12:29.745Z,15.45
2017-11-17T00:13:32.266Z,16.77
2017-11-17T00:14:34.831Z,15.73
2017-11-17T00:15:37.371Z,15.55
2017-11-17T00:16:40.654Z,16.05
2017-11-17T00:17:43.946Z,15.55
2017-11-17T00:18:47.179Z,15.15
2017-11-17T00:19:49.736Z,15.07
2017-11-17T00:20:52.254Z,16.42
2017-11-17T00:21:55.542Z,15.30
2017-11-17T00:22:58.067Z,16.23
2017-11-17T00:24:00.591Z,15.13
2017-11-17T00:25:03.143Z,16.77
2017-11-17T00:26:06.476Z,17.42
2017-11-17T00:27:08.999Z,17.30
2017-11-17T00:28:11.542Z,17.05
2017-11-17T00:29:14.836Z,15.95
2017-11-17T00:30:18.130Z,16.17
2017-11-17T00:31:20.698Z,16.20
2017-11-17T00:32:23.211Z,16.17
2017-11-17T00:33:25.734Z,16.10
2017-11-17T00:34:28.359Z,16.83
2017-11-17T00:35:30.881Z,14.80
2017-11-17T00:36:33.435Z,15.90
2017-11-17T00:37:35.958Z,15.95
2017-11-17T00:38:38.501Z,16.55
2017-11-17T00:39:41.059Z,15.27
2017-11-17T00:40:43.582Z,15.90
2017-11-17T00:41:46.867Z,14.05
2017-11-17T00:42:50.196Z,15.82
2017-11-17T00:43:52.711Z,15.55
2017-11-17T00:44:56.003Z,15.30
2017-11-17T00:45:59.338Z,15.02
2017-11-17T00:47:01.869Z,15.05
2017-11-17T00:48:04.408Z,15.40
2017-11-17T00:49:07.697Z,15.68
2017-11-17T00:50:10.977Z,15.95
2017-11-17T00:51:14.318Z,15.63
2017-11-17T00:52:17.596Z,16.35
2017-11-17T00:53:20.127Z,15.93
2017-11-17T00:54:23.402Z,15.40
2017-11-17T00:55:26.692Z,15.68
2017-11-17T00:56:30.006Z,14.55
2017-11-17T00:57:32.535Z,15.70
2017-11-17T00:58:35.822Z,15.15
2017-11-17T00:59:39.143Z,16.52
2017-11-17T01:00:41.679Z,15.23
2017-11-17T01:01:44.202Z,14.68
2017-11-17T01:02:46.759Z,15.73
2017-11-17T01:03:49.275Z,15.25
2017-11-17T01:04:51.802Z,15.40
2017-11-17T01:05:54.327Z,16.15
2017-11-17T01:06:56.849Z,15.20
2017-11-17T01:07:59.399Z,15.38
2017-11-17T01:09:01.919Z,14.55
2017-11-17T01:10:04.444Z,14.98
2017-11-17T01:11:07.777Z,15.63
2017-11-17T01:12:10.316Z,15.55
2017-11-17T01:13:12.853Z,15.50
2017-11-17T01:14:15.387Z,14.65
2017-11-17T01:15:17.919Z,15.57
2017-11-17T01:16:20.497Z,15.10
2017-11-17T01:17:23.020Z,16.30
2017-11-17T01:18:25.547Z,15.20
2017-11-17T01:19:28.121Z,15.40
2017-11-17T01:20:30.703Z,15.18
2017-11-17T01:21:33.258Z,14.60
2017-11-17T01:22:35.775Z,16.70
2017-11-17T01:23:39.059Z,15.15
2017-11-17T01:24:42.344Z,15.63
2017-11-17T01:25:45.649Z,16.20
2017-11-17T01:26:48.217Z,16.95
2017-11-17T01:27:50.739Z,15.05
2017-11-17T01:28:53.271Z,15.98
2017-11-17T01:29:55.799Z,16.30
2017-11-17T01:30:58.366Z,16.10
2017-11-17T01:32:00.895Z,15.63
2017-11-17T01:33:03.414Z,14.55
2017-11-17T01:34:05.937Z,14.95
2017-11-17T01:35:08.455Z,15.45
2017-11-17T01:36:11.035Z,15.07
2017-11-17T01:37:13.546Z,15.32
2017-11-17T01:38:16.887Z,16.27
2017-11-17T01:39:19.402Z,16.17
2017-11-17T01:40:22.696Z,16.58
2017-11-17T01:41:25.212Z,15.90
2017-11-17T01:42:27.726Z,16.00
2017-11-17T01:43:30.282Z,15.43
2017-11-17T01:44:33.570Z,15.23
2017-11-17T01:45:36.851Z,16.02
2017-11-17T01:46:40.139Z,15.38
2017-11-17T01:47:43.432Z,14.68
2017-11-17T01:48:45.988Z,14.87
2017-11-17T01:49:49.307Z,15.75
2017-11-17T01:50:51.835Z,16.30
2017-11-17T01:51:55.129Z,15.98
2017-11-17T01:52:57.654Z,16.42
2017-11-17T01:54:00.203Z,14.90
2017-11-17T01:55:02.734Z,14.95
2017-11-17T01:56:05.254Z,14.20
2017-11-17T01:57:07.789Z,15.95
2017-11-17T01:58:10.352Z,17.23
2017-11-17T01:59:12.875Z,14.63
2017-11-17T02:00:16.182Z,16.10
2017-11-17T02:01:18.737Z,16.58
2017-11-17T02:02:22.049Z,15.93
2017-11-17T02:03:24.571Z,15.73
2017-11-17T02:04:27.849Z,15.40
2017-11-17T02:05:30.377Z,14.77
2017-11-17T02:06:32.928Z,15.13
2017-11-17T02:07:35.493Z,16.02
2017-11-17T02:08:38.061Z,16.55
2017-11-17T02:09:40.594Z,17.12
2017-11-17T02:10:43.945Z,17.25
2017-11-17T02:11:46.465Z,16.30
2017-11-17T02:12:48.995Z,16.77
2017-11-17T02:13:51.550Z,14.95
2017-11-17T02:14:54.070Z,14.23
2017-11-17T02:15:56.591Z,15.07
2017-11-17T02:16:59.117Z,15.52
2017-11-17T02:18:01.687Z,15.95
2017-11-17T02:19:04.219Z,15.27
2017-11-17T02:20:06.742Z,15.55
2017-11-17T02:21:09.265Z,15.18
2017-11-17T02:22:11.782Z,14.95
2017-11-17T02:23:14.359Z,15.65
2017-11-17T02:24:17.650Z,15.75
2017-11-17T02:25:20.939Z,14.50
2017-11-17T02:26:24.257Z,14.50
2017-11-17T02:27:26.781Z,15.55
2017-11-17T02:28:30.069Z,16.65
2017-11-17T02:29:33.395Z,14.55
2017-11-17T02:30:35.909Z,15.50
2017-11-17T02:31:39.236Z,15.02
2017-11-17T02:32:41.759Z,14.20
2017-11-17T02:33:45.047Z,15.25
2017-11-17T02:34:48.383Z,15.07
2017-11-17T02:35:50.918Z,16.33
2017-11-17T02:36:53.439Z,15.98
2017-11-17T02:37:56.010Z,14.20
2017-11-17T02:38:58.580Z,15.20
2017-11-17T02:40:01.099Z,15.60
2017-11-17T02:41:03.618Z,15.55
2017-11-17T02:42:06.143Z,14.82
2017-11-17T02:43:08.706Z,14.80
2017-11-17T02:44:11.234Z,15.18
2017-11-17T02:45:14.543Z,15.02
2017-11-17T02:46:17.065Z,16.05
2017-11-17T02:47:19.591Z,15.63
2017-11-17T02:48:22.151Z,15.25
2017-11-17T02:49:24.674Z,15.77
2017-11-17T02:50:27.960Z,15.18
2017-11-17T02:51:31.247Z,14.68
2017-11-17T02:52:34.566Z,14.65
2017-11-17T02:53:37.082Z,16.08
2017-11-17T02:54:40.379Z,16.23
2017-11-17T02:55:43.668Z,15.98
2017-11-17T02:56:46.960Z,15.13
2017-11-17T02:57:49.516Z,14.65
2017-11-17T02:58:52.812Z,16.25
2017-11-17T02:59:55.364Z,14.77
2017-11-17T03:00:58.650Z,15.32
2017-11-17T03:02:01.935Z,16.20
2017-11-17T03:03:05.272Z,17.30
2017-11-17T03:04:07.786Z,15.70
2017-11-17T03:05:11.067Z,16.08
2017-11-17T03:06:14.374Z,15.73
2017-11-17T03:07:16.900Z,17.20
2017-11-17T03:08:19.455Z,16.02
2017-11-17T03:09:21.974Z,16.50
2017-11-17T03:10:24.494Z,16.52
2017-11-17T03:11:27.035Z,16.60
2017-11-17T03:12:29.558Z,17.15
2017-11-17T03:13:32.140Z,16.50
2017-11-17T03:14:34.695Z,17.12
2017-11-17T03:15:37.227Z,18.33
2017-11-17T03:16:39.756Z,15.88
2017-11-17T03:17:42.274Z,16.08
2017-11-17T03:18:45.597Z,16.77
2017-11-17T03:19:48.154Z,16.62
2017-11-17T03:20:50.670Z,17.62
2017-11-17T03:21:53.230Z,16.52
2017-11-17T03:22:55.763Z,17.25
2017-11-17T03:23:58.284Z,17.37
2017-11-17T03:25:01.565Z,17.50
2017-11-17T03:26:04.854Z,16.65
2017-11-17T03:27:08.181Z,16.90
2017-11-17T03:28:11.480Z,18.42
2017-11-17T03:29:14.005Z,17.17
2017-11-17T03:30:16.531Z,17.23
2017-11-17T03:31:19.086Z,16.70
2017-11-17T03:32:21.603Z,17.58
2017-11-17T03:33:24.125Z,17.52
2017-11-17T03:34:26.646Z,17.45
2017-11-17T03:35:29.198Z,16.20
2017-11-17T03:36:31.727Z,15.55
2017-11-17T03:37:34.292Z,17.12
2017-11-17T03:38:36.812Z,17.08
2017-11-17T03:39:39.326Z,17.10
2017-11-17T03:40:41.901Z,16.77
2017-11-17T03:41:44.423Z,17.85
2017-11-17T03:42:46.981Z,16.60
2017-11-17T03:43:49.499Z,16.83
2017-11-17T03:44:52.031Z,15.75
2017-11-17T03:45:54.565Z,16.27
2017-11-17T03:46:57.086Z,16.60
2017-11-17T03:47:59.653Z,16.73
2017-11-17T03:49:02.226Z,17.87
2017-11-17T03:50:04.746Z,18.30
2017-11-17T03:51:07.284Z,17.70
2017-11-17T03:52:10.572Z,16.02
2017-11-17T03:53:13.095Z,17.02
2017-11-17T03:54:15.665Z,17.90
2017-11-17T03:55:18.188Z,17.27
2017-11-17T03:56:20.711Z,16.45
2017-11-17T03:57:23.234Z,17.70
2017-11-17T03:58:25.755Z,17.10
2017-11-17T03:59:29.073Z,17.42
2017-11-17T04:00:31.600Z,18.00
2017-11-17T04:01:34.886Z,17.35
2017-11-17T04:02:38.174Z,17.23
2017-11-17T04:03:41.522Z,18.08
2017-11-17T04:04:44.046Z,17.52
2017-11-17T04:05:46.566Z,16.42
2017-11-17T04:06:49.103Z,17.25
2017-11-17T04:07:51.621Z,16.52
2017-11-17T04:08:54.945Z,16.60
2017-11-17T04:09:57.475Z,16.15
2017-11-17T04:11:00.051Z,15.48
2017-11-17T04:12:02.574Z,17.00
2017-11-17T04:13:05.101Z,17.98
2017-11-17T04:14:07.623Z,16.48
2017-11-17T04:15:10.142Z,16.42
2017-11-17T04:16:12.713Z,16.55
2017-11-17T04:17:15.243Z,15.50
2017-11-17T04:18:17.775Z,15.43
2017-11-17T04:19:20.298Z,16.40
2017-11-17T04:20:22.828Z,15.88
2017-11-17T04:21:26.159Z,15.10
2017-11-17T04:22:28.692Z,16.98
2017-11-17T04:23:31.974Z,15.55
2017-11-17T04:24:35.264Z,14.75
2017-11-17T04:25:37.786Z,17.08
2017-11-17T04:26:40.351Z,16.67
2017-11-17T04:27:42.878Z,16.33
2017-11-17T04:28:45.398Z,15.98
2017-11-17T04:29:47.918Z,16.33
2017-11-17T04:30:50.467Z,15.35
2017-11-17T04:31:53.040Z,16.15
2017-11-17T04:32:55.558Z,16.02
2017-11-17T04:33:58.080Z,14.77
2017-11-17T04:35:00.609Z,16.02
2017-11-17T04:36:03.936Z,14.95
2017-11-17T04:37:06.453Z,15.80
2017-11-17T04:38:09.749Z,13.35
2017-11-17T04:39:13.029Z,12.65
2017-11-17T04:40:16.310Z,13.15
2017-11-17T04:41:19.721Z,14.00
2017-11-17T04:42:22.242Z,12.65
2017-11-17T04:43:24.759Z,12.25
2017-11-17T04:44:27.278Z,12.27
2017-11-17T04:45:29.796Z,11.60
2017-11-17T04:46:32.362Z,14.27
2017-11-17T04:47:34.885Z,13.13
2017-11-17T04:48:38.171Z,14.00
2017-11-17T04:49:41.453Z,12.43
2017-11-17T04:50:44.738Z,13.07
2017-11-17T04:51:47.305Z,13.20
2017-11-17T04:52:50.585Z,12.65
2017-11-17T04:53:53.871Z,13.13
2017-11-17T04:54:57.159Z,12.63
2017-11-17T04:56:00.438Z,14.20
2017-11-17T04:57:03.767Z,13.32
2017-11-17T04:58:06.295Z,14.30
2017-11-17T04:59:09.582Z,14.25
2017-11-17T05:00:12.867Z,14.55
2017-11-17T05:01:16.151Z,13.68
2017-11-17T05:02:19.468Z,13.18
2017-11-17T05:03:21.996Z,14.73
2017-11-17T05:04:24.523Z,13.02
2017-11-17T05:05:27.039Z,14.27
2017-11-17T05:06:29.599Z,13.88
2017-11-17T05:07:32.920Z,13.40
2017-11-17T05:08:35.450Z,14.40
2017-11-17T05:09:38.737Z,13.07
2017-11-17T05:10:41.391Z,13.75
2017-11-17T05:11:44.723Z,12.37
2017-11-17T05:12:47.238Z,14.57
2017-11-17T05:13:50.525Z,14.00
2017-11-17T05:14:53.815Z,14.10
2017-11-17T05:15:57.104Z,14.13
2017-11-17T05:17:00.428Z,13.13
2017-11-17T05:18:02.941Z,14.77
2017-11-17T05:19:06.232Z,12.60
2017-11-17T05:20:09.521Z,12.48
2017-11-17T05:21:12.814Z,12.07
2017-11-17T05:22:15.376Z,11.85
2017-11-17T05:23:17.903Z,12.63
2017-11-17T05:24:20.424Z,11.68
2017-11-17T05:25:22.947Z,11.15
2017-11-17T05:26:25.466Z,12.60
2017-11-17T05:27:28.020Z,12.18
2017-11-17T05:28:30.579Z,12.15
2017-11-17T05:29:33.095Z,11.60
2017-11-17T05:30:35.622Z,10.95
2017-11-17T05:31:38.147Z,11.55
2017-11-17T05:32:41.429Z,10.75
2017-11-17T05:33:44.765Z,10.68
2017-11-17T05:34:47.325Z,10.30
2017-11-17T05:35:49.851Z,10.88
2017-11-17T05:36:53.133Z,10.70
2017-11-17T05:37:55.679Z,10.80
2017-11-17T05:38:58.238Z,11.32
2017-11-17T05:40:00.762Z,10.63
2017-11-17T05:41:03.283Z,11.02
2017-11-17T05:42:05.803Z,11.02
2017-11-17T05:43:08.337Z,9.98
2017-11-17T05:44:11.662Z,11.10
2017-11-17T05:45:14.187Z,10.43
2017-11-17T05:46:17.470Z,11.25
2017-11-17T05:47:20.758Z,10.60
2017-11-17T05:48:24.094Z,10.93
2017-11-17T05:49:26.607Z,9.77
2017-11-17T05:50:29.894Z,10.65
2017-11-17T05:51:33.178Z,11.25
2017-11-17T05:52:36.463Z,10.95
2017-11-17T05:53:39.044Z,10.70
2017-11-17T05:54:41.561Z,10.70
2017-11-17T05:55:44.092Z,11.32
2017-11-17T05:56:46.618Z,10.05
2017-11-17T05:57:49.904Z,10.30
2017-11-17T05:58:53.231Z,11.57
2017-11-17T05:59:55.769Z,11.43
2017-11-17T06:00:58.295Z,10.07
2017-11-17T06:02:00.819Z,11.20
2017-11-17T06:03:03.373Z,11.32
2017-11-17T06:04:05.904Z,11.10
2017-11-17T06:05:08.427Z,11.73
2017-11-17T06:06:10.946Z,11.15
2017-11-17T06:07:14.230Z,11.43
2017-11-17T06:08:17.546Z,11.57
2017-11-17T06:09:20.067Z,10.40
2017-11-17T06:10:22.623Z,10.75
2017-11-17T06:11:25.151Z,10.23
2017-11-17T06:12:27.710Z,10.98
2017-11-17T06:13:30.239Z,11.77
2017-11-17T06:15:42.538Z,12.23
2017-11-17T06:16:45.867Z,11.88
2017-11-17T06:17:48.430Z,12.23
2017-11-17T06:18:50.991Z,11.43
2017-11-17T06:19:53.507Z,11.30
2017-11-17T06:20:56.036Z,11.90
2017-11-17T06:21:58.567Z,12.63
2017-11-17T06:23:01.888Z,11.20
2017-11-17T06:24:04.442Z,11.63
2017-11-17T06:25:06.963Z,12.50
2017-11-17T06:26:09.494Z,11.40
2017-11-17T06:27:12.042Z,11.88
2017-11-17T06:28:14.555Z,11.27
2017-11-17T06:29:17.080Z,11.98
2017-11-17T06:30:19.600Z,11.75
2017-11-17T06:31:22.906Z,13.05
2017-11-17T06:32:25.460Z,11.65
2017-11-17T06:33:28.747Z,13.65
2017-11-17T06:34:32.034Z,12.70
2017-11-17T06:35:34.565Z,12.82
2017-11-17T06:36:37.115Z,13.68
2017-11-17T06:37:39.684Z,12.35
2017-11-17T06:38:42.215Z,13.70
2017-11-17T06:39:44.732Z,13.18
2017-11-17T06:40:47.245Z,12.15
2017-11-17T06:41:49.762Z,13.00
2017-11-17T06:42:52.345Z,12.48
2017-11-17T06:43:55.634Z,11.60
2017-11-17T06:44:58.919Z,11.98
2017-11-17T06:46:02.207Z,11.70
2017-11-17T06:47:05.496Z,12.35
2017-11-17T06:48:08.818Z,12.20
2017-11-17T06:49:11.387Z,11.93
2017-11-17T06:50:13.906Z,12.43
2017-11-17T06:51:17.196Z,11.75
2017-11-17T06:52:20.488Z,10.73
2017-11-17T06:53:23.009Z,11.52
2017-11-17T06:54:25.590Z,12.35
2017-11-17T06:55:28.102Z,11.52
2017-11-17T06:56:30.626Z,12.57
2017-11-17T06:57:33.910Z,11.65
2017-11-17T06:58:39.015Z,13.07
2017-11-17T06:59:41.587Z,10.93
2017-11-17T07:00:44.110Z,12.05
2017-11-17T07:01:46.632Z,12.20
2017-11-17T07:02:49.932Z,11.18
2017-11-17T07:03:53.218Z,12.68
2017-11-17T07:04:56.547Z,11.43
2017-11-17T07:05:59.073Z,11.35
2017-11-17T07:07:01.592Z,11.70
2017-11-17T07:08:04.121Z,12.60
2017-11-17T07:09:06.648Z,11.75
2017-11-17T07:10:09.975Z,11.30
2017-11-17T07:11:12.491Z,11.07
2017-11-17T07:12:15.007Z,11.98
2017-11-17T07:13:17.540Z,11.77
2017-11-17T07:14:20.830Z,12.57
2017-11-17T07:15:24.167Z,10.90
2017-11-17T07:16:26.688Z,11.30
2017-11-17T07:17:29.219Z,11.57
2017-11-17T07:18:31.746Z,11.85
2017-11-17T07:19:34.276Z,11.75
2017-11-17T07:20:37.598Z,10.95
2017-11-17T07:21:40.118Z,12.70
2017-11-17T07:22:43.439Z,11.55
2017-11-17T07:23:45.960Z,11.48
2017-11-17T07:24:48.481Z,12.55
2017-11-17T07:25:51.000Z,11.98
2017-11-17T07:26:54.318Z,11.27
2017-11-17T07:27:56.841Z,11.68
2017-11-17T07:29:00.139Z,11.35
2017-11-17T07:30:03.422Z,11.48
2017-11-17T07:31:06.707Z,12.27
2017-11-17T07:32:10.023Z,11.48
2017-11-17T07:33:12.542Z,12.02
2017-11-17T07:34:15.827Z,12.07
2017-11-17T07:35:19.118Z,13.40
2017-11-17T07:36:22.402Z,12.15
2017-11-17T07:37:24.974Z,12.35
2017-11-17T07:38:28.266Z,12.25
2017-11-17T07:39:30.792Z,12.90
2017-11-17T07:40:33.315Z,13.85
2017-11-17T07:41:35.845Z,12.73
2017-11-17T07:42:39.180Z,12.45
2017-11-17T07:43:41.707Z,13.52
2017-11-17T07:44:45.028Z,13.25
2017-11-17T07:45:47.550Z,13.93
2017-11-17T07:46:50.844Z,14.15
2017-11-17T07:47:53.411Z,14.38
2017-11-17T07:48:55.937Z,15.13
2017-11-17T07:49:58.465Z,12.23
2017-11-17T07:51:00.983Z,11.73
2017-11-17T07:52:03.508Z,12.73
2017-11-17T07:53:06.063Z,11.88
2017-11-17T07:54:08.590Z,11.88
2017-11-17T07:55:11.877Z,11.18
2017-11-17T07:56:14.430Z,11.57
2017-11-17T07:57:16.956Z,11.70
2017-11-17T07:58:19.515Z,12.45
2017-11-17T07:59:22.044Z,13.15
2017-11-17T08:00:25.327Z,13.05
2017-11-17T08:01:28.652Z,13.60
2017-11-17T08:02:31.175Z,12.85
2017-11-17T08:03:34.462Z,11.68
2017-11-17T08:04:37.755Z,12.40
2017-11-17T08:05:40.278Z,12.40
2017-11-17T08:06:42.856Z,12.18
2017-11-17T08:07:45.380Z,12.70
2017-11-17T08:08:47.915Z,12.45
2017-11-17T08:09:51.212Z,11.35
2017-11-17T08:10:53.730Z,11.05
2017-11-17T08:11:56.278Z,11.02
2017-11-17T08:12:58.791Z,11.05
2017-11-17T08:14:02.079Z,11.02
2017-11-17T08:15:04.679Z,11.02
2017-11-17T08:16:07.238Z,10.88
2017-11-17T08:17:21.600Z,11.95
2017-11-17T08:18:30.883Z,10.85
2017-11-17T08:19:34.168Z,11.12
2017-11-17T08:20:36.688Z,10.88
2017-11-17T08:21:39.246Z,12.00
2017-11-17T08:22:41.770Z,11.23
2017-11-17T08:23:44.302Z,12.60
2017-11-17T08:24:46.823Z,12.37
2017-11-17T08:25:49.343Z,11.48
2017-11-17T08:26:51.926Z,11.10
2017-11-17T08:27:55.208Z,11.70
2017-11-17T08:28:58.539Z,12.48
2017-11-17T08:30:01.064Z,11.27
2017-11-17T08:31:04.359Z,11.98
2017-11-17T08:32:06.914Z,10.50
2017-11-17T08:33:10.226Z,11.40
2017-11-17T08:34:12.742Z,11.27
2017-11-17T08:35:16.043Z,11.25
2017-11-17T08:36:19.325Z,11.52
2017-11-17T08:37:22.606Z,13.52
2017-11-17T08:38:25.918Z,11.23
2017-11-17T08:39:28.439Z,11.85
2017-11-17T08:40:31.004Z,11.68
2017-11-17T08:41:33.564Z,11.27
2017-11-17T08:42:36.099Z,11.38
2017-11-17T08:43:38.627Z,10.60
2017-11-17T08:44:41.924Z,11.85
2017-11-17T08:45:44.484Z,10.85
2017-11-17T08:46:47.007Z,10.93
2017-11-17T08:47:49.526Z,12.07
2017-11-17T08:48:52.079Z,13.07
2017-11-17T08:49:54.606Z,11.75
2017-11-17T08:50:57.163Z,13.32
2017-11-17T08:51:59.678Z,12.60
2017-11-17T08:53:02.205Z,12.30
2017-11-17T08:54:04.760Z,11.75
2017-11-17T08:55:07.283Z,11.98
2017-11-17T08:56:09.815Z,12.75
2017-11-17T08:57:12.373Z,11.40
2017-11-17T08:58:14.890Z,11.98
2017-11-17T08:59:17.436Z,12.05
2017-11-17T09:00:20.755Z,12.15
2017-11-17T09:01:23.279Z,10.63
2017-11-17T09:02:26.571Z,11.52
2017-11-17T09:03:29.124Z,12.93
2017-11-17T09:04:32.419Z,13.32
2017-11-17T09:05:35.704Z,11.95
2017-11-17T09:06:38.984Z,11.25
2017-11-17T09:07:42.275Z,11.18
2017-11-17T09:08:44.835Z,10.95
2017-11-17T09:09:48.172Z,11.02
2017-11-17T09:10:50.710Z,10.52
2017-11-17T09:11:53.234Z,10.10
2017-11-17T09:12:55.760Z,10.40
2017-11-17T09:13:58.282Z,10.15
2017-11-17T09:15:01.599Z,9.60
2017-11-17T09:16:04.123Z,10.00
2017-11-17T09:17:07.474Z,11.43
2017-11-17T09:18:09.986Z,10.32
2017-11-17T09:19:13.291Z,10.77
2017-11-17T09:20:15.843Z,12.40
2017-11-17T09:21:18.375Z,10.20
2017-11-17T09:22:20.903Z,11.38
2017-11-17T09:23:23.455Z,10.10
2017-11-17T09:24:25.974Z,9.77
2017-11-17T09:25:28.531Z,10.18
2017-11-17T09:26:31.054Z,9.88
2017-11-17T09:27:33.606Z,9.48
2017-11-17T09:28:36.127Z,9.77
2017-11-17T09:29:38.672Z,10.27
2017-11-17T09:30:41.192Z,9.88
2017-11-17T09:31:44.525Z,10.07
2017-11-17T09:32:47.062Z,9.65
2017-11-17T09:33:49.584Z,8.98
2017-11-17T09:34:52.104Z,9.50
2017-11-17T09:35:54.619Z,9.35
2017-11-17T09:36:57.176Z,9.63
2017-11-17T09:37:59.747Z,9.32
2017-11-17T09:39:02.274Z,9.82
2017-11-17T09:40:04.790Z,10.18
2017-11-17T09:41:07.308Z,10.05
2017-11-17T09:42:09.825Z,10.10
2017-11-17T09:43:13.151Z,10.02
2017-11-17T09:44:15.667Z,10.70
2017-11-17T09:45:18.188Z,10.80
2017-11-17T09:46:20.717Z,10.52
2017-11-17T09:47:24.003Z,10.18
2017-11-17T09:48:26.563Z,9.75
2017-11-17T09:50:39.479Z,10.70
2017-11-17T09:51:42.761Z,11.07
2017-11-17T09:52:46.046Z,12.20
2017-11-17T09:53:49.375Z,11.80
2017-11-17T09:54:51.901Z,11.30
2017-11-17T09:55:55.194Z,11.80
2017-11-17T09:56:57.917Z,11.18
2017-11-17T09:58:00.431Z,11.88
2017-11-17T09:59:02.979Z,11.82
2017-11-17T10:00:06.313Z,11.98
2017-11-17T10:01:08.891Z,10.98
2017-11-17T10:02:11.419Z,11.60
2017-11-17T10:03:13.946Z,12.73
2017-11-17T10:04:16.471Z,11.20
2017-11-17T10:05:19.032Z,11.52
2017-11-17T10:06:21.560Z,10.63
2017-11-17T10:07:24.867Z,11.27
2017-11-17T10:08:27.386Z,11.65
2017-11-17T10:09:29.927Z,10.93
2017-11-17T10:10:32.478Z,11.18
2017-11-17T10:11:35.002Z,10.18
2017-11-17T10:12:38.337Z,11.20
2017-11-17T10:13:40.863Z,9.27
2017-11-17T10:14:44.172Z,10.15
2017-11-17T10:15:46.694Z,10.23
2017-11-17T10:16:50.052Z,9.98
2017-11-17T10:17:52.585Z,9.75
2017-11-17T10:18:55.119Z,10.88
2017-11-17T10:19:58.419Z,10.57
2017-11-17T10:21:01.737Z,12.18
2017-11-17T10:22:04.302Z,10.20
2017-11-17T10:23:06.831Z,10.65
2017-11-17T10:24:10.119Z,10.57
2017-11-17T10:25:12.654Z,12.13
2017-11-17T10:26:15.249Z,11.40
2017-11-17T10:27:18.537Z,11.40
2017-11-17T10:28:21.823Z,10.50
2017-11-17T10:29:24.354Z,11.38
2017-11-17T10:30:26.885Z,11.38
2017-11-17T10:31:29.447Z,10.65
2017-11-17T10:32:31.970Z,11.77
2017-11-17T10:33:35.259Z,11.00
2017-11-17T10:34:38.559Z,11.10
2017-11-17T10:35:41.087Z,10.63
2017-11-17T10:36:43.651Z,9.63
2017-11-17T10:37:46.210Z,10.27
2017-11-17T10:38:48.739Z,10.25
2017-11-17T10:39:51.277Z,10.50
2017-11-17T10:40:54.586Z,9.05
2017-11-17T10:41:57.150Z,9.35
2017-11-17T10:42:59.736Z,9.32
2017-11-17T10:44:02.255Z,8.73
2017-11-17T10:45:05.574Z,9.52
2017-11-17T10:46:08.102Z,8.25
2017-11-17T10:47:11.417Z,8.57
2017-11-17T10:48:13.945Z,8.70
2017-11-17T10:49:16.503Z,8.23
2017-11-17T10:50:19.027Z,7.15
2017-11-17T10:51:21.550Z,7.07
2017-11-17T10:52:24.838Z,7.45
2017-11-17T10:53:28.174Z,7.82
2017-11-17T10:54:30.707Z,8.45
2017-11-17T10:55:33.234Z,9.15
2017-11-17T10:56:35.764Z,9.70
2017-11-17T10:57:38.315Z,10.98
2017-11-17T10:58:41.658Z,9.23
2017-11-17T10:59:45.895Z,8.80
2017-11-17T11:00:48.413Z,9.45
2017-11-17T11:01:50.946Z,10.07
2017-11-17T11:02:53.475Z,10.13
2017-11-17T11:03:56.791Z,9.35
2017-11-17T11:04:59.359Z,9.43
2017-11-17T11:06:01.875Z,8.82
2017-11-17T11:07:04.391Z,9.35
2017-11-17T11:08:06.923Z,8.88
2017-11-17T11:09:10.215Z,8.43
2017-11-17T11:10:12.796Z,8.35
2017-11-17T11:11:21.103Z,8.73
2017-11-17T11:12:23.663Z,8.45
2017-11-17T11:13:26.192Z,7.97
2017-11-17T11:14:28.838Z,7.78
2017-11-17T11:15:31.355Z,7.68
2017-11-17T11:16:33.872Z,6.75
2017-11-17T11:17:36.393Z,7.72
2017-11-17T11:18:38.915Z,8.00
2017-11-17T11:19:41.474Z,7.85
2017-11-17T11:20:43.996Z,9.30
2017-11-17T11:21:46.510Z,8.05
2017-11-17T11:22:49.031Z,8.20
2017-11-17T11:23:51.554Z,7.30
2017-11-17T11:24:54.899Z,6.97
2017-11-17T11:25:57.425Z,5.97
2017-11-17T11:27:00.728Z,6.07
2017-11-17T11:28:03.243Z,6.47
2017-11-17T11:29:05.923Z,6.50
2017-11-17T11:30:08.484Z,6.65
2017-11-17T11:31:11.013Z,7.07
2017-11-17T11:32:13.535Z,6.15
2017-11-17T11:33:16.834Z,6.28
2017-11-17T11:34:19.363Z,6.28
2017-11-17T11:35:21.931Z,6.43
2017-11-17T11:36:24.460Z,6.57
2017-11-17T11:37:26.987Z,6.20
2017-11-17T11:38:30.283Z,6.05
2017-11-17T11:39:32.803Z,5.90
2017-11-17T11:40:35.375Z,5.97
2017-11-17T11:41:37.948Z,5.72
2017-11-17T11:42:40.474Z,6.30
2017-11-17T11:43:42.998Z,6.22
2017-11-17T11:44:46.288Z,4.70
2017-11-17T11:45:48.811Z,5.70
2017-11-17T11:46:51.374Z,5.75
2017-11-17T11:47:53.900Z,5.90
2017-11-17T11:48:56.426Z,5.28
2017-11-17T11:49:58.952Z,5.00
2017-11-17T11:51:01.488Z,6.20
2017-11-17T11:52:04.046Z,5.40
2017-11-17T11:53:07.378Z,5.40
2017-11-17T11:54:09.945Z,4.95
2017-11-17T11:55:12.467Z,6.57
2017-11-17T11:56:14.994Z,5.25
2017-11-17T11:57:17.528Z,5.03
2017-11-17T11:58:20.063Z,4.97
2017-11-17T11:59:22.632Z,4.95
2017-11-17T12:00:25.167Z,4.83
2017-11-17T12:01:27.701Z,4.30
2017-11-17T12:02:30.243Z,5.28
2017-11-17T12:03:32.763Z,5.10
2017-11-17T12:04:35.344Z,4.70
2017-11-17T12:05:37.863Z,5.47
2017-11-17T12:06:40.399Z,4.80
2017-11-17T12:07:42.927Z,4.60
2017-11-17T12:08:45.458Z,4.93
2017-11-17T12:09:48.024Z,4.80
2017-11-17T12:10:50.545Z,5.32
2017-11-17T12:11:53.835Z,4.78
2017-11-17T12:12:57.132Z,5.68
2017-11-17T12:13:59.660Z,4.68
2017-11-17T12:15:02.231Z,5.18
2017-11-17T12:16:04.763Z,4.30
2017-11-17T12:17:07.286Z,4.70
2017-11-17T12:18:10.574Z,4.53
2017-11-17T12:19:13.102Z,5.20
2017-11-17T12:20:15.663Z,4.32
2017-11-17T12:21:18.235Z,4.70
2017-11-17T12:22:20.767Z,3.80
2017-11-17T12:23:23.298Z,3.80
2017-11-17T12:24:26.627Z,3.67
2017-11-17T12:25:29.200Z,3.53
2017-11-17T12:26:31.771Z,3.40
2017-11-17T12:27:34.304Z,3.90
2017-11-17T12:28:36.874Z,4.10
2017-11-17T12:29:39.398Z,3.90
2017-11-17T12:30:41.927Z,3.60
2017-11-17T12:31:44.451Z,3.93
2017-11-17T12:32:47.779Z,4.97
2017-11-17T12:33:50.304Z,3.43
2017-11-17T12:34:52.839Z,3.50
2017-11-17T12:35:55.366Z,4.00
2017-11-17T12:36:57.897Z,3.80
2017-11-17T12:38:00.485Z,3.60
2017-11-17T12:39:03.008Z,3.27
2017-11-17T12:40:05.634Z,3.90
2017-11-17T12:41:08.158Z,4.43
2017-11-17T12:42:11.447Z,3.70
2017-11-17T12:43:14.770Z,3.50
2017-11-17T12:44:17.294Z,4.03
2017-11-17T12:45:20.614Z,3.80
2017-11-17T12:46:23.133Z,4.43
2017-11-17T12:47:26.421Z,4.30
2017-11-17T12:48:29.712Z,4.47
2017-11-17T12:49:32.279Z,4.35
2017-11-17T12:50:34.819Z,4.30
2017-11-17T12:51:37.351Z,3.40
2017-11-17T12:52:39.874Z,3.95
2017-11-17T12:53:42.392Z,3.78
2017-11-17T12:54:44.949Z,3.67
2017-11-17T12:55:47.476Z,3.37
2017-11-17T12:56:50.765Z,3.75
2017-11-17T12:57:53.301Z,4.00
2017-11-17T12:58:55.868Z,3.67
2017-11-17T12:59:58.390Z,4.45
2017-11-17T13:01:00.953Z,3.92
2017-11-17T13:02:03.486Z,4.43
2017-11-17T13:03:06.779Z,4.50
2017-11-17T13:04:10.059Z,3.70
2017-11-17T13:05:13.344Z,4.68
2017-11-17T13:06:16.673Z,5.30
2017-11-17T13:07:19.195Z,4.28
2017-11-17T13:08:21.721Z,5.30
2017-11-17T13:09:24.246Z,5.40
2017-11-17T13:10:26.763Z,3.83
2017-11-17T13:11:29.330Z,4.15
2017-11-17T13:12:31.850Z,5.45
2017-11-17T13:13:34.365Z,4.65
2017-11-17T13:14:36.888Z,4.40
2017-11-17T13:15:39.431Z,4.50
2017-11-17T13:16:41.987Z,4.90
2017-11-17T13:17:45.287Z,4.22
2017-11-17T13:18:48.151Z,4.97
2017-11-17T13:19:50.675Z,4.95
2017-11-17T13:20:53.230Z,4.30
2017-11-17T13:21:55.761Z,3.95
2017-11-17T13:22:58.293Z,4.37
2017-11-17T13:24:01.584Z,5.65
2017-11-17T13:25:04.899Z,4.40
2017-11-17T13:26:07.430Z,4.70
2017-11-17T13:27:10.749Z,4.22
2017-11-17T13:28:13.285Z,4.20
2017-11-17T13:29:16.578Z,3.55
2017-11-17T13:30:19.862Z,4.25
2017-11-17T13:31:22.397Z,4.40
2017-11-17T13:32:24.955Z,4.95
2017-11-17T13:33:27.491Z,4.07
2017-11-17T13:34:30.039Z,5.15
2017-11-17T13:35:32.597Z,4.80
2017-11-17T13:36:35.118Z,4.40
2017-11-17T13:37:37.659Z,4.57